Terminal Aerodrome Forecast
Issued by NWS Billings, MT

Home | Current Version | Previous Version | Text Only | Print | Product List | Glossary On
Versions: 1 2 3 4 5 6 7 8 9 10 11 12 13
000
FTUS45 KBYZ 241130
TAFSHR
TAF
KSHR 241130Z 2412/2512 VRB04KT P6SM SCT100 BKN200
     FM241600 32006KT P6SM SCT100 BKN200
     FM242000 02006KT P6SM SCT100 BKN200
     FM250200 VRB04KT P6SM SCT100 BKN200=

USA.gov is the U.S. government's official web portal to all federal, state and local government web resources and services.